Ronald E. Wagenblast — WDE5768 — position and weather

sailwx.info

Track history (hours):
 
Tides and Currents Weather Stations Pressure Air Temp Water Temp Dewpoint Dewpoint Depression Visibility Wind Speed Wind Dir Waves Ship Positions

Ronald E. Wagenblast

Owner: Marquette Transportation Company, LLC, Paducah, KY. More information available from US FCC via Universal Licensing System and Coast Guard Vessel Documentation Center.

Last reported at 2018-May-03 16:55 UTC. Time now 2018-May-26 04:11 UTC.
Position N 39°15' W 090°44'.
Warning: this ship's position is 22 days out of date.

Length 46 m; draft 2.7 m.

Type: Towing. MMSI: 367371390.

Date/timePositionNaut miles runAvg speedWind from/ knotsBaromVisibWave heightAir tempDewpointWater temp
2018-May-03 16:55N 39°15' W 090°44'7 3.2
2018-May-03 14:50N 39°09' W 090°43'1 3.8
2018-May-03 14:30N 39°08' W 090°42'3 3.8
2018-May-03 13:43N 39°05' W 090°41'1 4.2
2018-May-03 13:30N 39°04' W 090°42'2 3.5
2018-May-03 13:00N 39°03' W 090°43'2 3.8
2018-May-03 12:30N 39°01' W 090°42'1 1.2
2018-May-03 12:00N 39°00' W 090°41'0 0.2
2018-May-03 11:30N 39°00' W 090°41'0 0.0
2018-May-03 11:00N 39°00' W 090°41'1 1.2
2018-May-03 10:30N 38°60' W 090°41'2 3.7
2018-May-03 09:58N 38°58' W 090°40'2 4.9
2018-May-03 09:30N 38°55' W 090°40'2 4.7
2018-May-03 09:00N 38°54' W 090°38'2 4.5
2018-May-03 08:30N 38°52' W 090°36'2 4.6
2018-May-03 08:00N 38°52' W 090°33'2 4.6
2018-May-03 07:30N 38°54' W 090°31'2 4.7
2018-May-03 07:00N 38°56' W 090°29'2 3.4
2018-May-03 06:30N 38°57' W 090°28'1 1.7
2018-May-03 06:00N 38°57' W 090°27'2 4.6
2018-May-03 05:30N 38°58' W 090°24'2 4.8
2018-May-03 05:00N 38°57' W 090°21'2 4.1
2018-May-03 04:30N 38°55' W 090°19'2 3.2
2018-May-03 04:00N 38°55' W 090°17'2 3.7
2018-May-03 03:30N 38°55' W 090°14'2 3.5
2018-May-03 03:00N 38°54' W 090°13'2 4.2
2018-May-03 02:27N 38°53' W 090°10'2 1.8
2018-May-03 01:37N 38°52' W 090°09'1 3.4
2018-May-03 01:25N 38°52' W 090°08'0 0.5
2018-May-03 00:58N 38°52' W 090°08'0 0.0
2018-May-03 00:28N 38°52' W 090°08'0 0.0
2018-May-02 23:59N 38°52' W 090°08'0 0.0
2018-May-02 23:30N 38°52' W 090°08'0 0.0
2018-May-02 22:51N 38°52' W 090°08'0 0.0
2018-May-02 22:30N 38°52' W 090°08'0 0.0
2018-May-02 22:01N 38°52' W 090°08'0 0.0
2018-May-02 21:30N 38°52' W 090°08'0 0.0
2018-May-02 21:00N 38°52' W 090°08'0 0.0
2018-May-02 20:30N 38°52' W 090°08'0 0.0
2018-May-02 20:00N 38°52' W 090°08'0 0.0
2018-May-02 19:30N 38°52' W 090°08'0 0.0
2018-May-02 19:00N 38°52' W 090°08'0 0.0
2018-May-02 18:30N 38°52' W 090°08'0 0.0
2018-May-02 18:00N 38°52' W 090°08'0 0.0
2018-May-02 17:30N 38°52' W 090°08'0 0.0
2018-May-02 17:00N 38°52' W 090°08'0 0.0
2018-May-02 16:30N 38°52' W 090°08'0 0.0
2018-May-02 16:00N 38°52' W 090°08'2 3.1
2018-May-02 15:30N 38°50' W 090°06'2 4.7
2018-May-02 15:00N 38°48' W 090°07'3 6.8
2018-May-02 14:30N 38°45' W 090°09'3 5.9
2018-May-02 13:59N 38°42' W 090°11'0 0.9
2018-May-02 13:30N 38°42' W 090°11'0 0.0
2018-May-02 13:00N 38°42' W 090°11'2 3.4
2018-May-02 12:30N 38°40' W 090°11'1 2.1
2018-May-02 11:59N 38°39' W 090°11'2 0.1
2018-May-01 21:36N 38°37' W 090°11'3 8.7
2018-May-01 21:17N 38°40' W 090°11'2 5.0
2018-May-01 20:54N 38°42' W 090°11'0 1.1
2018-May-01 20:30N 38°42' W 090°11'1 1.5
2018-May-01 19:51N 38°43' W 090°10'1 3.0
2018-May-01 19:28N 38°44' W 090°10'3 2.9
2018-May-01 18:24N 38°47' W 090°08'2 4.5
2018-May-01 18:00N 38°48' W 090°07'3 6.5
2018-May-01 17:30N 38°52' W 090°08'1 2.1
2018-May-01 16:58N 38°52' W 090°09'1 1.1
2018-May-01 16:30N 38°52' W 090°10'3 5.0
2018-May-01 16:00N 38°54' W 090°12'1 2.2
2018-May-01 15:30N 38°55' W 090°13'0 0.8
2018-May-01 15:00N 38°55' W 090°14'3 5.3
2018-May-01 14:30N 38°55' W 090°17'3 6.1
2018-May-01 14:00N 38°56' W 090°21'3 6.5
2018-May-01 13:30N 38°58' W 090°24'3 6.2
2018-May-01 13:00N 38°57' W 090°28'3 6.2
2018-May-01 12:30N 38°55' W 090°31'3 6.1
2018-May-01 12:00N 38°52' W 090°33'3 6.1
2018-May-01 11:30N 38°53' W 090°37'3 6.4
2018-May-01 11:00N 38°55' W 090°40'4 6.7
2018-May-01 10:29N 38°59' W 090°40'2 2.9
2018-May-01 09:57N 39°00' W 090°41'0 0.0
2018-May-01 09:30N 39°00' W 090°41'0 0.2
2018-May-01 08:53N 39°00' W 090°41'0 0.0
2018-May-01 08:30N 39°00' W 090°41'0 0.5
2018-May-01 08:00N 39°01' W 090°42'2 3.5
2018-May-01 07:30N 39°02' W 090°42'5 5.8
2018-May-01 06:35N 39°07' W 090°42'1 6.7
2018-May-01 06:29N 39°08' W 090°42'  
Track history (hours):
 
Tides and Currents Weather Stations Pressure Air Temp Water Temp Dewpoint Dewpoint Depression Visibility Wind Speed Wind Dir Waves Ship Positions

Ronald E. Wagenblast

Owner: Marquette Transportation Company, LLC, Paducah, KY. More information available from US FCC via Universal Licensing System and Coast Guard Vessel Documentation Center.

Last reported at 2018-May-03 16:55 UTC. Time now 2018-May-26 04:11 UTC.
Position N 39°15' W 090°44'.
Warning: this ship's position is 22 days out of date.

Length 46 m; draft 2.7 m.

Type: Towing. MMSI: 367371390.

Date/timePositionNaut miles runAvg speedWind from/ knotsBaromVisibWave heightAir tempDewpointWater temp
2018-May-03 16:55N 39°15' W 090°44'7 3.2
2018-May-03 14:50N 39°09' W 090°43'1 3.8
2018-May-03 14:30N 39°08' W 090°42'3 3.8
2018-May-03 13:43N 39°05' W 090°41'1 4.2
2018-May-03 13:30N 39°04' W 090°42'2 3.5
2018-May-03 13:00N 39°03' W 090°43'2 3.8
2018-May-03 12:30N 39°01' W 090°42'1 1.2
2018-May-03 12:00N 39°00' W 090°41'0 0.2
2018-May-03 11:30N 39°00' W 090°41'0 0.0
2018-May-03 11:00N 39°00' W 090°41'1 1.2
2018-May-03 10:30N 38°60' W 090°41'2 3.7
2018-May-03 09:58N 38°58' W 090°40'2 4.9
2018-May-03 09:30N 38°55' W 090°40'2 4.7
2018-May-03 09:00N 38°54' W 090°38'2 4.5
2018-May-03 08:30N 38°52' W 090°36'2 4.6
2018-May-03 08:00N 38°52' W 090°33'2 4.6
2018-May-03 07:30N 38°54' W 090°31'2 4.7
2018-May-03 07:00N 38°56' W 090°29'2 3.4
2018-May-03 06:30N 38°57' W 090°28'1 1.7
2018-May-03 06:00N 38°57' W 090°27'2 4.6
2018-May-03 05:30N 38°58' W 090°24'2 4.8
2018-May-03 05:00N 38°57' W 090°21'2 4.1
2018-May-03 04:30N 38°55' W 090°19'2 3.2
2018-May-03 04:00N 38°55' W 090°17'2 3.7
2018-May-03 03:30N 38°55' W 090°14'2 3.5
2018-May-03 03:00N 38°54' W 090°13'2 4.2
2018-May-03 02:27N 38°53' W 090°10'2 1.8
2018-May-03 01:37N 38°52' W 090°09'1 3.4
2018-May-03 01:25N 38°52' W 090°08'0 0.5
2018-May-03 00:58N 38°52' W 090°08'0 0.0
2018-May-03 00:28N 38°52' W 090°08'0 0.0
2018-May-02 23:59N 38°52' W 090°08'0 0.0
2018-May-02 23:30N 38°52' W 090°08'0 0.0
2018-May-02 22:51N 38°52' W 090°08'0 0.0
2018-May-02 22:30N 38°52' W 090°08'0 0.0
2018-May-02 22:01N 38°52' W 090°08'0 0.0
2018-May-02 21:30N 38°52' W 090°08'0 0.0
2018-May-02 21:00N 38°52' W 090°08'0 0.0
2018-May-02 20:30N 38°52' W 090°08'0 0.0
2018-May-02 20:00N 38°52' W 090°08'0 0.0
2018-May-02 19:30N 38°52' W 090°08'0 0.0
2018-May-02 19:00N 38°52' W 090°08'0 0.0
2018-May-02 18:30N 38°52' W 090°08'0 0.0
2018-May-02 18:00N 38°52' W 090°08'0 0.0
2018-May-02 17:30N 38°52' W 090°08'0 0.0
2018-May-02 17:00N 38°52' W 090°08'0 0.0
2018-May-02 16:30N 38°52' W 090°08'0 0.0
2018-May-02 16:00N 38°52' W 090°08'2 3.1
2018-May-02 15:30N 38°50' W 090°06'2 4.7
2018-May-02 15:00N 38°48' W 090°07'3 6.8
2018-May-02 14:30N 38°45' W 090°09'3 5.9
2018-May-02 13:59N 38°42' W 090°11'0 0.9
2018-May-02 13:30N 38°42' W 090°11'0 0.0
2018-May-02 13:00N 38°42' W 090°11'2 3.4
2018-May-02 12:30N 38°40' W 090°11'1 2.1
2018-May-02 11:59N 38°39' W 090°11'2 0.1
2018-May-01 21:36N 38°37' W 090°11'3 8.7
2018-May-01 21:17N 38°40' W 090°11'2 5.0
2018-May-01 20:54N 38°42' W 090°11'0 1.1
2018-May-01 20:30N 38°42' W 090°11'1 1.5
2018-May-01 19:51N 38°43' W 090°10'1 3.0
2018-May-01 19:28N 38°44' W 090°10'3 2.9
2018-May-01 18:24N 38°47' W 090°08'2 4.5
2018-May-01 18:00N 38°48' W 090°07'3 6.5
2018-May-01 17:30N 38°52' W 090°08'1 2.1
2018-May-01 16:58N 38°52' W 090°09'1 1.1
2018-May-01 16:30N 38°52' W 090°10'3 5.0
2018-May-01 16:00N 38°54' W 090°12'1 2.2
2018-May-01 15:30N 38°55' W 090°13'0 0.8
2018-May-01 15:00N 38°55' W 090°14'3 5.3
2018-May-01 14:30N 38°55' W 090°17'3 6.1
2018-May-01 14:00N 38°56' W 090°21'3 6.5
2018-May-01 13:30N 38°58' W 090°24'3 6.2
2018-May-01 13:00N 38°57' W 090°28'3 6.2
2018-May-01 12:30N 38°55' W 090°31'3 6.1
2018-May-01 12:00N 38°52' W 090°33'3 6.1
2018-May-01 11:30N 38°53' W 090°37'3 6.4
2018-May-01 11:00N 38°55' W 090°40'4 6.7
2018-May-01 10:29N 38°59' W 090°40'2 2.9
2018-May-01 09:57N 39°00' W 090°41'0 0.0
2018-May-01 09:30N 39°00' W 090°41'0 0.2
2018-May-01 08:53N 39°00' W 090°41'0 0.0
2018-May-01 08:30N 39°00' W 090°41'0 0.5
2018-May-01 08:00N 39°01' W 090°42'2 3.5
2018-May-01 07:30N 39°02' W 090°42'5 5.8
2018-May-01 06:35N 39°07' W 090°42'1 6.7
2018-May-01 06:29N 39°08' W 090°42'  

Dump ship's entire track history